Time;durP1;ratioP1;P1;durP2;ratioP2;P2;SDS_P1;SDS_P2;PMS_P1;PMS_P2;Temp;Humidity;BMP_temperature;BMP_pressure;BME280_temperature;BME280_humidity;BME280_pressure;Samples;Min_cycle;Max_cycle;Signal;HPM_P1;HPM_P2
2022/07/13 00:00:50;;;;;;;3.70;1.20;;;21.90;58.50;;;;;;5044694;28;20512;-48
2022/07/13 00:03:16;;;;;;;4.40;1.47;;;21.80;58.80;;;;;;5043170;28;20516;-48
2022/07/13 00:05:43;;;;;;;1.53;1.43;;;21.80;59.00;;;;;;5044298;28;20466;-49
2022/07/13 00:08:10;;;;;;;2.30;1.40;;;21.80;59.20;;;;;;5042746;28;20469;-48
2022/07/13 00:10:37;;;;;;;4.20;2.47;;;21.80;59.40;;;;;;5039688;28;20481;-48
2022/07/13 00:13:04;;;;;;;2.80;1.83;;;21.80;59.50;;;;;;5026666;28;20462;-48
2022/07/13 00:15:31;;;;;;;5.47;2.10;;;21.80;59.50;;;;;;5043905;28;20550;-48
2022/07/13 00:17:57;;;;;;;2.10;1.47;;;21.80;59.40;;;;;;5026276;28;21329;-48
2022/07/13 00:20:27;;;;;;;3.23;1.30;;;21.80;59.50;;;;;;5038497;28;20465;-48
2022/07/13 00:22:54;;;;;;;2.00;1.80;;;21.90;59.60;;;;;;5028828;28;20557;-48
2022/07/13 00:25:22;;;;;;;1.90;1.53;;;21.80;59.50;;;;;;5040706;28;20598;-49
2022/07/13 00:27:49;;;;;;;2.10;1.07;;;21.80;59.50;;;;;;5017493;28;20974;-48
2022/07/13 00:30:16;;;;;;;5.50;1.67;;;21.80;59.70;;;;;;5041262;28;20520;-48
2022/07/13 00:32:43;;;;;;;3.53;2.10;;;21.80;59.80;;;;;;5027504;28;21054;-49
2022/07/13 00:35:10;;;;;;;2.30;1.37;;;21.80;60.00;;;;;;5021553;28;20462;-48
2022/07/13 00:37:37;;;;;;;3.93;1.97;;;21.80;60.10;;;;;;5042232;28;20462;-48
2022/07/13 00:40:04;;;;;;;2.30;1.50;;;21.80;60.10;;;;;;5042270;28;20450;-48
2022/07/13 00:42:31;;;;;;;3.33;1.53;;;21.80;60.30;;;;;;5024117;28;20470;-48
2022/07/13 00:44:58;;;;;;;2.00;1.83;;;21.80;60.40;;;;;;5019655;28;20997;-48
2022/07/13 00:47:29;;;;;;;2.23;1.60;;;21.80;60.50;;;;;;5042180;28;20951;-48
2022/07/13 00:49:57;;;;;;;2.87;1.80;;;21.80;60.50;;;;;;5041867;28;20478;-48
2022/07/13 00:52:25;;;;;;;2.03;1.63;;;21.80;60.60;;;;;;5043043;28;20577;-48
2022/07/13 00:54:52;;;;;;;2.83;1.83;;;21.80;60.80;;;;;;5044227;28;20907;-48
2022/07/13 00:57:19;;;;;;;3.70;2.03;;;21.80;60.80;;;;;;5025707;28;20470;-48
2022/07/13 00:59:47;;;;;;;3.50;2.37;;;21.80;60.90;;;;;;5024155;28;20495;-48
2022/07/13 01:02:13;;;;;;;1.83;1.73;;;21.80;60.90;;;;;;5043928;28;20493;-49
2022/07/13 01:04:40;;;;;;;2.20;1.50;;;21.80;60.90;;;;;;5024555;28;21044;-48
2022/07/13 01:07:07;;;;;;;2.80;1.70;;;21.80;61.00;;;;;;5021597;28;21059;-48
2022/07/13 01:09:35;;;;;;;3.57;1.70;;;21.80;60.80;;;;;;5024026;28;20465;-48
2022/07/13 01:12:02;;;;;;;1.80;1.60;;;21.80;60.70;;;;;;5022441;28;20462;-48
2022/07/13 01:14:29;;;;;;;2.07;1.90;;;21.80;60.70;;;;;;5019981;28;20527;-49
2022/07/13 01:16:58;;;;;;;7.33;1.80;;;21.80;60.80;;;;;;5021744;28;20458;-48
2022/07/13 01:19:25;;;;;;;2.87;1.70;;;21.80;60.90;;;;;;5043930;28;20454;-48
2022/07/13 01:21:59;;;;;;;1.57;1.47;;;21.80;61.10;;;;;;5026224;28;20470;-47
2022/07/13 01:24:29;;;;;;;1.80;1.70;;;21.80;61.30;;;;;;5044594;28;20577;-48
2022/07/13 01:26:58;;;;;;;4.63;1.70;;;21.80;61.40;;;;;;5042179;28;20493;-48
2022/07/13 01:29:25;;;;;;;3.43;1.50;;;21.80;61.30;;;;;;5030926;28;20544;-48
2022/07/13 01:31:58;;;;;;;3.53;1.80;;;21.80;61.40;;;;;;5028940;28;20501;-48
2022/07/13 01:34:25;;;;;;;3.60;1.50;;;21.80;61.40;;;;;;5042703;28;20496;-48
2022/07/13 01:36:52;;;;;;;2.27;1.83;;;21.80;61.40;;;;;;5043580;28;21000;-47
2022/07/13 01:39:19;;;;;;;2.07;1.87;;;21.70;61.40;;;;;;5047360;28;20462;-47
2022/07/13 01:41:46;;;;;;;2.30;1.90;;;21.70;61.30;;;;;;5026432;28;21123;-47
2022/07/13 01:44:14;;;;;;;4.80;2.23;;;21.80;61.20;;;;;;5046038;28;20469;-48
2022/07/13 01:46:41;;;;;;;4.00;1.73;;;21.80;61.30;;;;;;5024540;28;21001;-48
2022/07/13 01:49:08;;;;;;;2.67;1.53;;;21.80;61.30;;;;;;5045862;28;20463;-48
2022/07/13 01:51:35;;;;;;;2.37;2.17;;;21.80;61.80;;;;;;5047069;28;20573;-47
2022/07/13 01:54:02;;;;;;;2.57;2.20;;;21.80;61.80;;;;;;5044614;28;20919;-48
2022/07/13 01:56:29;;;;;;;3.97;2.23;;;21.80;61.80;;;;;;5044776;28;20469;-48
2022/07/13 01:58:56;;;;;;;1.90;1.70;;;21.80;61.90;;;;;;5041239;28;20810;-48
2022/07/13 02:01:22;;;;;;;2.80;2.13;;;21.70;62.10;;;;;;5025364;28;20851;-47
2022/07/13 02:03:49;;;;;;;2.70;2.30;;;21.70;62.40;;;;;;5026284;28;20469;-48
2022/07/13 02:06:16;;;;;;;2.07;1.80;;;21.70;62.70;;;;;;5046109;28;20497;-48
2022/07/13 02:08:43;;;;;;;2.70;1.87;;;21.70;62.90;;;;;;5028227;28;20464;-48
2022/07/13 02:11:17;;;;;;;2.60;2.40;;;21.70;62.90;;;;;;5043585;28;20482;-47
2022/07/13 02:13:47;;;;;;;2.67;2.50;;;21.70;63.00;;;;;;5045050;28;20704;-48
2022/07/13 02:16:15;;;;;;;3.30;2.43;;;21.70;63.30;;;;;;5043969;28;20465;-48
2022/07/13 02:18:42;;;;;;;2.83;2.57;;;21.70;63.20;;;;;;5045966;28;20473;-46
2022/07/13 02:21:10;;;;;;;5.37;2.33;;;21.70;63.40;;;;;;5029432;28;20553;-46
2022/07/13 02:23:37;;;;;;;3.17;2.10;;;21.70;63.60;;;;;;5047532;28;20464;-48
2022/07/13 02:26:04;;;;;;;2.20;2.00;;;21.70;63.50;;;;;;5044982;28;20886;-48
2022/07/13 02:28:31;;;;;;;2.50;1.60;;;21.70;63.60;;;;;;5043838;28;20472;-48
2022/07/13 02:30:58;;;;;;;2.43;2.23;;;21.70;63.70;;;;;;5046451;28;20493;-48
2022/07/13 02:33:25;;;;;;;2.03;1.60;;;21.60;63.50;;;;;;5028677;28;20467;-48
2022/07/13 02:35:52;;;;;;;2.67;2.33;;;21.60;63.50;;;;;;5044428;28;20466;-48
2022/07/13 02:38:18;;;;;;;2.00;1.60;;;21.60;63.80;;;;;;5025273;28;20559;-48
2022/07/13 02:40:45;;;;;;;2.03;1.80;;;21.60;63.90;;;;;;5026402;28;20462;-48
2022/07/13 02:43:12;;;;;;;3.93;1.50;;;21.60;63.80;;;;;;5022235;28;21138;-48
2022/07/13 02:45:38;;;;;;;3.10;2.33;;;21.60;63.70;;;;;;5029250;28;22028;-47
2022/07/13 02:48:05;;;;;;;2.93;1.97;;;21.60;64.00;;;;;;5029384;28;20468;-48
2022/07/13 02:50:32;;;;;;;2.70;1.63;;;21.60;64.00;;;;;;5049158;28;20496;-47
2022/07/13 02:52:59;;;;;;;1.87;1.37;;;21.50;64.00;;;;;;5029179;28;20469;-48
2022/07/13 02:55:25;;;;;;;1.37;1.27;;;21.50;63.50;;;;;;5033694;28;21039;-47
2022/07/13 02:57:52;;;;;;;2.30;2.20;;;21.50;63.30;;;;;;5046514;28;20468;-47
2022/07/13 03:00:19;;;;;;;2.73;1.80;;;21.50;63.60;;;;;;5028665;28;21021;-47
2022/07/13 03:02:46;;;;;;;1.60;1.50;;;21.40;63.80;;;;;;5047008;28;20470;-47
2022/07/13 03:05:12;;;;;;;2.63;2.03;;;21.40;64.00;;;;;;5029641;28;20465;-47
2022/07/13 03:07:39;;;;;;;1.87;1.70;;;21.40;64.00;;;;;;5031072;28;20533;-47
2022/07/13 03:10:07;;;;;;;3.33;2.13;;;21.40;64.00;;;;;;5049457;28;20467;-47
2022/07/13 03:12:34;;;;;;;3.07;1.80;;;21.40;64.10;;;;;;5046366;28;20489;-47
2022/07/13 03:15:00;;;;;;;1.97;1.83;;;21.40;64.20;;;;;;5049603;28;20454;-48
2022/07/13 03:17:27;;;;;;;3.80;2.30;;;21.40;64.30;;;;;;5043353;28;20498;-47
2022/07/13 03:19:54;;;;;;;4.70;1.93;;;21.30;64.40;;;;;;5048944;28;20538;-47
2022/07/13 03:22:21;;;;;;;3.97;1.87;;;21.30;64.40;;;;;;5027411;28;20467;-47
2022/07/13 03:24:47;;;;;;;1.93;1.83;;;21.30;64.50;;;;;;5047913;28;20469;-48
2022/07/13 03:27:14;;;;;;;2.67;1.83;;;21.30;64.80;;;;;;5029126;28;20458;-48
2022/07/13 03:29:41;;;;;;;2.60;1.70;;;21.30;65.10;;;;;;5047771;28;20466;-47
2022/07/13 03:32:08;;;;;;;2.73;2.00;;;21.40;64.90;;;;;;5043979;28;20485;-47
2022/07/13 03:34:35;;;;;;;3.60;2.23;;;21.40;64.90;;;;;;5046370;28;20454;-47
2022/07/13 03:37:01;;;;;;;2.93;2.70;;;21.30;64.90;;;;;;5045088;28;20451;-47
2022/07/13 03:39:28;;;;;;;4.00;2.57;;;21.30;64.90;;;;;;5030913;28;20569;-47
2022/07/13 03:41:55;;;;;;;2.20;2.00;;;21.30;64.80;;;;;;5029912;28;20489;-47
2022/07/13 03:44:22;;;;;;;2.40;2.07;;;21.30;64.80;;;;;;5047771;28;21034;-47
2022/07/13 03:46:48;;;;;;;2.93;2.23;;;21.30;65.00;;;;;;5048774;28;20462;-48
2022/07/13 03:49:15;;;;;;;2.40;2.10;;;21.20;65.10;;;;;;5049002;28;20536;-48
2022/07/13 03:51:43;;;;;;;3.27;2.50;;;21.20;65.50;;;;;;5026187;28;21058;-48
2022/07/13 03:54:09;;;;;;;2.27;2.07;;;21.20;65.70;;;;;;5049196;28;20460;-48
2022/07/13 03:56:36;;;;;;;3.17;2.07;;;21.20;65.80;;;;;;5048104;28;20459;-48
2022/07/13 03:59:03;;;;;;;3.27;2.67;;;21.20;65.90;;;;;;5046566;28;20542;-48
2022/07/13 04:01:30;;;;;;;3.67;2.23;;;21.20;66.00;;;;;;5027728;28;20478;-48
2022/07/13 04:03:58;;;;;;;2.73;2.17;;;21.20;66.30;;;;;;5045111;28;20476;-48
2022/07/13 04:06:25;;;;;;;3.40;1.93;;;21.20;66.40;;;;;;5029443;28;20466;-48
2022/07/13 04:08:52;;;;;;;4.40;2.20;;;21.20;66.50;;;;;;5045903;28;20497;-48
2022/07/13 04:11:19;;;;;;;2.33;2.23;;;21.20;66.50;;;;;;5047279;28;20490;-48
2022/07/13 04:13:45;;;;;;;3.20;2.10;;;21.20;66.50;;;;;;5047988;28;20454;-48
2022/07/13 04:16:12;;;;;;;2.57;2.30;;;21.20;66.50;;;;;;5044906;28;20873;-48
2022/07/13 04:18:39;;;;;;;4.43;2.23;;;21.20;66.50;;;;;;5049122;28;20482;-48
2022/07/13 04:21:07;;;;;;;2.50;2.30;;;21.20;66.50;;;;;;5048497;28;20461;-47
2022/07/13 04:23:34;;;;;;;2.60;1.70;;;21.20;66.60;;;;;;5049008;28;20541;-47
2022/07/13 04:26:01;;;;;;;2.50;1.80;;;21.20;66.50;;;;;;5047962;28;20462;-47
2022/07/13 04:28:27;;;;;;;2.47;1.73;;;21.20;66.50;;;;;;5046580;28;20981;-47
2022/07/13 04:30:54;;;;;;;2.50;1.80;;;21.20;66.30;;;;;;5026517;28;20485;-47
2022/07/13 04:33:21;;;;;;;2.57;2.00;;;21.30;66.10;;;;;;5024466;28;20462;-47
2022/07/13 04:35:48;;;;;;;1.80;1.70;;;21.30;66.20;;;;;;5027142;28;20458;-47
2022/07/13 04:38:14;;;;;;;3.60;1.93;;;21.30;66.20;;;;;;5030453;28;20820;-47
2022/07/13 04:40:41;;;;;;;2.37;1.97;;;21.30;66.30;;;;;;5028765;28;20576;-47
2022/07/13 04:43:08;;;;;;;3.60;2.20;;;21.30;66.20;;;;;;5031331;28;20520;-48
2022/07/13 04:45:35;;;;;;;2.00;1.70;;;21.30;66.10;;;;;;5042343;28;20914;-48
2022/07/13 04:48:02;;;;;;;2.30;2.03;;;21.30;66.10;;;;;;5030694;28;20474;-47
2022/07/13 04:50:29;;;;;;;2.37;2.07;;;21.40;65.90;;;;;;5046679;28;20549;-47
2022/07/13 04:52:56;;;;;;;1.93;1.80;;;21.40;65.90;;;;;;5044118;28;20462;-47
2022/07/13 04:55:23;;;;;;;2.50;2.10;;;21.40;66.00;;;;;;5045967;28;20465;-47
2022/07/13 04:57:50;;;;;;;4.00;2.40;;;21.40;66.00;;;;;;5045971;28;20454;-47
2022/07/13 05:00:16;;;;;;;3.67;2.63;;;21.40;66.10;;;;;;5046829;28;21003;-47
2022/07/13 05:02:43;;;;;;;4.03;2.37;;;21.50;65.90;;;;;;5047892;28;20458;-47
2022/07/13 05:05:10;;;;;;;5.80;2.27;;;21.50;66.00;;;;;;5030057;28;20462;-48
2022/07/13 05:07:37;;;;;;;3.10;1.97;;;21.60;66.00;;;;;;5050533;28;20462;-47
2022/07/13 05:10:07;;;;;;;3.47;2.53;;;21.60;65.80;;;;;;5027661;28;20462;-47
2022/07/13 05:12:39;;;;;;;2.50;2.30;;;21.60;65.80;;;;;;5048514;28;20508;-47
2022/07/13 05:15:08;;;;;;;2.50;1.67;;;21.60;65.70;;;;;;5053899;28;20462;-48
2022/07/13 05:17:35;;;;;;;2.60;1.87;;;21.60;65.60;;;;;;5050372;28;20467;-47
2022/07/13 05:20:03;;;;;;;2.07;1.87;;;21.60;65.50;;;;;;5050540;28;22211;-47
2022/07/13 05:22:30;;;;;;;2.57;2.37;;;21.60;65.50;;;;;;5045264;28;20492;-47
2022/07/13 05:24:57;;;;;;;2.20;2.00;;;21.60;65.50;;;;;;5047885;28;20462;-47
2022/07/13 05:27:24;;;;;;;4.10;2.20;;;21.60;65.40;;;;;;5041848;28;20465;-47
2022/07/13 05:29:50;;;;;;;6.20;2.20;;;21.60;65.10;;;;;;5048370;28;20464;-48
2022/07/13 05:32:17;;;;;;;2.17;2.00;;;21.70;64.70;;;;;;5050887;28;20504;-48
2022/07/13 05:34:44;;;;;;;8.67;3.00;;;21.70;64.70;;;;;;5048885;28;20457;-47
2022/07/13 05:37:11;;;;;;;2.10;1.90;;;21.70;64.40;;;;;;5049376;28;20908;-47
2022/07/13 05:39:42;;;;;;;4.50;2.30;;;21.80;64.30;;;;;;5050809;28;20484;-47
2022/07/13 05:42:09;;;;;;;2.17;2.00;;;21.80;64.20;;;;;;5031015;28;20469;-47
2022/07/13 05:44:36;;;;;;;3.00;1.90;;;21.80;63.90;;;;;;5049000;28;21020;-48
2022/07/13 05:47:02;;;;;;;2.50;2.10;;;21.90;63.80;;;;;;5034156;28;20465;-47
2022/07/13 05:49:29;;;;;;;4.60;2.00;;;21.90;63.60;;;;;;5047981;28;20885;-49
2022/07/13 05:51:56;;;;;;;4.50;1.87;;;21.90;63.60;;;;;;5048078;28;20501;-49
2022/07/13 05:54:23;;;;;;;1.90;1.80;;;21.90;63.60;;;;;;5046294;28;20454;-49
2022/07/13 05:57:10;;;;;;;2.17;2.00;;;22.00;63.60;;;;;;5018384;28;20508;-49
2022/07/13 05:59:36;;;;;;;2.30;2.10;;;22.00;63.60;;;;;;5049917;28;20462;-49
2022/07/13 06:02:03;;;;;;;3.30;2.20;;;22.00;64.00;;;;;;5045228;28;22219;-49
2022/07/13 06:04:30;;;;;;;2.60;2.40;;;22.10;64.40;;;;;;5047293;28;20454;-49
2022/07/13 06:06:57;;;;;;;4.23;2.27;;;22.10;64.40;;;;;;5047821;28;20537;-49
2022/07/13 06:09:24;;;;;;;3.90;1.90;;;22.20;64.40;;;;;;5033497;28;20470;-49
2022/07/13 06:11:50;;;;;;;5.83;2.00;;;22.20;64.10;;;;;;5044713;28;20490;-49
2022/07/13 06:14:17;;;;;;;4.20;2.50;;;22.20;63.90;;;;;;5021269;28;20454;-49
2022/07/13 06:16:44;;;;;;;2.83;1.97;;;22.30;63.80;;;;;;5042900;28;20458;-49
2022/07/13 06:19:11;;;;;;;4.07;2.30;;;22.30;63.70;;;;;;5047046;28;21865;-49
2022/07/13 06:21:37;;;;;;;4.30;2.13;;;22.30;63.70;;;;;;5048893;28;20986;-49
2022/07/13 06:24:05;;;;;;;1.93;1.80;;;22.30;63.30;;;;;;5045083;28;20792;-49
2022/07/13 06:26:31;;;;;;;2.07;1.70;;;22.40;63.00;;;;;;5042572;28;20462;-49
2022/07/13 06:28:58;;;;;;;3.23;2.00;;;22.40;63.00;;;;;;5027378;28;20462;-49
2022/07/13 06:31:25;;;;;;;2.67;2.47;;;22.50;63.10;;;;;;5044626;28;20493;-49
2022/07/13 06:33:52;;;;;;;4.43;2.13;;;22.50;63.10;;;;;;5046380;28;20454;-49
2022/07/13 06:36:19;;;;;;;6.00;2.20;;;22.50;62.80;;;;;;5048731;28;20858;-50
2022/07/13 06:38:46;;;;;;;2.97;2.13;;;22.60;62.50;;;;;;5049546;28;20452;-50
2022/07/13 06:41:13;;;;;;;3.53;2.40;;;22.60;61.90;;;;;;5048060;28;20449;-50
2022/07/13 06:43:39;;;;;;;4.30;2.17;;;22.70;61.80;;;;;;5044281;28;20512;-50
2022/07/13 06:46:07;;;;;;;3.03;2.27;;;22.70;61.70;;;;;;5033032;28;20438;-50
2022/07/13 06:48:35;;;;;;;2.40;2.20;;;22.80;61.10;;;;;;5031237;28;20458;-50
2022/07/13 06:51:03;;;;;;;2.93;2.10;;;22.80;60.80;;;;;;5049483;28;20446;-50
2022/07/13 06:53:30;;;;;;;2.80;2.20;;;22.90;60.60;;;;;;5031027;28;20567;-50
2022/07/13 06:55:57;;;;;;;5.20;2.30;;;23.00;60.90;;;;;;5030223;28;20468;-50
2022/07/13 06:58:24;;;;;;;2.33;2.13;;;23.20;60.60;;;;;;5025768;28;20488;-50
2022/07/13 07:00:51;;;;;;;2.47;2.00;;;23.40;59.80;;;;;;5045009;28;21198;-50
2022/07/13 07:03:18;;;;;;;2.40;1.60;;;23.50;58.90;;;;;;5042821;28;20472;-50
2022/07/13 07:05:45;;;;;;;2.37;2.07;;;23.70;58.10;;;;;;5045567;28;20564;-50
2022/07/13 07:08:13;;;;;;;1.73;1.57;;;23.80;57.00;;;;;;5025766;28;21146;-50
2022/07/13 07:10:40;;;;;;;1.40;1.30;;;23.90;56.90;;;;;;5026250;28;20939;-50
2022/07/13 07:13:07;;;;;;;1.80;1.40;;;24.00;56.50;;;;;;5043575;28;20501;-50
2022/07/13 07:15:34;;;;;;;2.17;1.97;;;24.10;55.50;;;;;;5030053;28;20953;-50
2022/07/13 07:18:01;;;;;;;2.60;1.80;;;24.20;55.30;;;;;;5045354;28;20465;-50
2022/07/13 07:20:35;;;;;;;1.80;1.70;;;24.30;54.60;;;;;;5029970;28;20458;-50
2022/07/13 07:23:01;;;;;;;3.57;1.73;;;24.30;54.30;;;;;;5023567;28;20461;-50
2022/07/13 07:25:28;;;;;;;2.47;1.80;;;24.30;54.70;;;;;;5026155;28;20468;-50
2022/07/13 07:27:55;;;;;;;1.87;1.67;;;24.40;54.70;;;;;;5042506;28;20822;-50
2022/07/13 07:30:22;;;;;;;3.10;1.43;;;24.40;54.50;;;;;;5040362;28;20462;-50
2022/07/13 07:32:49;;;;;;;2.97;2.10;;;24.50;54.70;;;;;;5024934;28;21321;-50
2022/07/13 07:35:16;;;;;;;2.90;2.07;;;24.70;54.40;;;;;;5026976;28;21042;-50
2022/07/13 07:37:43;;;;;;;6.40;2.20;;;25.00;53.30;;;;;;5044217;28;20458;-50
2022/07/13 07:40:11;;;;;;;3.17;1.73;;;25.30;53.00;;;;;;5047342;28;20823;-50
2022/07/13 07:42:38;;;;;;;1.53;1.40;;;25.60;51.80;;;;;;5047392;28;20445;-50
2022/07/13 07:45:05;;;;;;;6.40;1.30;;;25.80;51.10;;;;;;5043556;28;20468;-50
2022/07/13 07:47:32;;;;;;;1.50;1.40;;;26.00;49.80;;;;;;5019174;28;20528;-49
2022/07/13 07:49:59;;;;;;;2.13;1.37;;;26.20;49.70;;;;;;5046980;28;20816;-49
2022/07/13 07:52:26;;;;;;;1.90;1.10;;;26.20;49.10;;;;;;5045710;28;21016;-49
2022/07/13 07:55:13;;;;;;;7.23;1.50;;;26.30;49.40;;;;;;5028450;28;20450;-49
2022/07/13 07:57:47;;;;;;;1.53;1.30;;;26.40;49.50;;;;;;5046425;28;20445;-49
2022/07/13 08:00:15;;;;;;;2.17;1.43;;;26.40;49.70;;;;;;5025048;28;20494;-49
2022/07/13 08:02:42;;;;;;;1.40;1.30;;;26.40;49.50;;;;;;5023419;28;20900;-49
2022/07/13 08:05:10;;;;;;;1.90;1.37;;;26.40;49.80;;;;;;5045391;28;20826;-49
2022/07/13 08:07:43;;;;;;;1.40;1.30;;;26.50;49.10;;;;;;5043767;28;20460;-49
2022/07/13 08:10:14;;;;;;;1.80;1.30;;;26.50;48.70;;;;;;5022181;28;20476;-50
2022/07/13 08:12:59;;;;;;;1.57;1.40;;;26.60;48.40;;;;;;5028680;28;20942;-50
2022/07/13 08:15:26;;;;;;;1.70;1.13;;;26.60;48.70;;;;;;5047159;28;20442;-49
2022/07/13 08:17:54;;;;;;;1.63;1.50;;;26.70;49.50;;;;;;5030677;28;20496;-50
2022/07/13 08:20:21;;;;;;;3.30;1.47;;;26.80;50.50;;;;;;5040600;28;20457;-48
2022/07/13 08:22:49;;;;;;;1.47;1.37;;;26.80;50.40;;;;;;5043758;28;21007;-50
2022/07/13 08:25:17;;;;;;;1.43;1.30;;;26.80;48.60;;;;;;5045047;28;20453;-51
2022/07/13 08:27:44;;;;;;;1.37;1.10;;;26.80;48.70;;;;;;5024593;28;21026;-51
2022/07/13 08:30:11;;;;;;;1.57;1.20;;;26.80;48.10;;;;;;5049763;28;20462;-51
2022/07/13 08:32:39;;;;;;;1.20;1.10;;;26.90;48.50;;;;;;5030937;28;20924;-51
2022/07/13 08:40:42;;;;;;;1.63;1.10;;;27.00;47.90;;;;;;5047837;28;20726;-51
2022/07/13 08:43:09;;;;;;;1.63;1.43;;;27.00;47.80;;;;;;5046104;28;20465;-51
2022/07/13 08:45:36;;;;;;;1.93;1.47;;;27.00;47.70;;;;;;5048274;28;20536;-50
2022/07/13 08:48:25;;;;;;;2.60;1.43;;;27.00;48.30;;;;;;5047223;28;20462;-50
2022/07/13 08:50:52;;;;;;;1.13;1.03;;;27.00;48.00;;;;;;5029730;28;20863;-50
2022/07/13 08:53:20;;;;;;;1.70;1.47;;;27.10;48.60;;;;;;5050451;28;21013;-51
2022/07/13 08:55:48;;;;;;;1.63;1.03;;;27.30;48.90;;;;;;5029865;28;20835;-51
2022/07/13 08:58:17;;;;;;;2.20;1.70;;;27.30;48.00;;;;;;5033410;28;20276;-51
2022/07/13 09:00:45;;;;;;;5.23;2.23;;;27.40;49.50;;;;;;5047650;28;20531;-51
2022/07/13 09:03:12;;;;;;;4.83;2.63;;;27.50;50.30;;;;;;5029339;28;20207;-51
2022/07/13 09:05:40;;;;;;;7.53;2.53;;;27.50;50.50;;;;;;5050129;28;20445;-51
2022/07/13 09:08:09;;;;;;;4.70;2.27;;;27.50;51.00;;;;;;5041072;28;20465;-51
2022/07/13 09:11:05;;;;;;;3.90;2.30;;;27.60;51.00;;;;;;5026911;28;20616;-50
2022/07/13 09:13:38;;;;;;;9.83;2.10;;;27.70;50.00;;;;;;5030003;28;20480;-50
2022/07/13 09:16:17;;;;;;;6.20;2.10;;;27.80;50.30;;;;;;5050639;28;20565;-50
2022/07/13 09:18:47;;;;;;;10.03;2.30;;;27.90;50.30;;;;;;5047902;28;20220;-50
2022/07/13 09:21:14;;;;;;;4.10;1.97;;;28.10;50.90;;;;;;5029201;28;20254;-50
2022/07/13 09:23:41;;;;;;;2.87;2.00;;;28.30;49.70;;;;;;5047872;28;20676;-51
2022/07/13 09:26:08;;;;;;;1.63;1.00;;;28.60;48.80;;;;;;5044389;28;20206;-50
2022/07/13 09:28:47;;;;;;;3.30;0.90;;;28.80;46.10;;;;;;5048031;28;20305;-51
2022/07/13 09:31:15;;;;;;;3.03;0.90;;;29.00;44.30;;;;;;5047495;28;20238;-51
2022/07/13 09:33:44;;;;;;;0.85;0.85;;;29.10;44.10;;;;;;5030125;28;21144;-51
2022/07/13 09:36:15;;;;;;;1.10;1.00;;;29.20;42.70;;;;;;5049417;28;20211;-50
2022/07/13 09:38:46;;;;;;;1.90;0.95;;;29.20;41.60;;;;;;5050155;28;20201;-51
2022/07/13 09:41:20;;;;;;;0.98;0.98;;;29.20;41.20;;;;;;5028444;28;20208;-52
2022/07/13 09:46:50;;;;;;;2.55;1.20;;;29.10;41.70;;;;;;5049466;28;20559;-51
2022/07/13 09:49:18;;;;;;;1.45;0.85;;;29.10;41.70;;;;;;5031322;28;20246;-51
2022/07/13 09:51:45;;;;;;;2.35;0.90;;;29.20;41.40;;;;;;5049123;28;20222;-52
2022/07/13 09:54:13;;;;;;;0.73;0.73;;;29.20;40.60;;;;;;5029662;28;20669;-50
2022/07/13 09:56:47;;;;;;;0.90;0.80;;;29.30;39.10;;;;;;5047246;28;20235;-51
2022/07/13 09:59:15;;;;;;;0.82;0.68;;;29.50;38.60;;;;;;5028494;28;20290;-51
2022/07/13 10:01:45;;;;;;;0.70;0.70;;;29.60;39.20;;;;;;5047253;28;20666;-51
2022/07/13 10:04:13;;;;;;;1.05;0.95;;;29.70;38.50;;;;;;5045896;28;20210;-51
2022/07/13 10:07:00;;;;;;;1.40;0.75;;;29.80;39.50;;;;;;5031363;28;20227;-51
2022/07/13 10:09:29;;;;;;;1.45;0.95;;;29.90;39.30;;;;;;5046872;28;20218;-51
2022/07/13 10:11:57;;;;;;;1.10;1.00;;;29.90;39.70;;;;;;5045441;28;20598;-51
2022/07/13 10:14:26;;;;;;;1.50;0.80;;;29.90;39.90;;;;;;5047458;28;20213;-51
2022/07/13 10:17:01;;;;;;;1.05;1.00;;;29.80;39.90;;;;;;5028687;28;20660;-51
2022/07/13 10:19:30;;;;;;;1.02;0.77;;;29.80;39.90;;;;;;5048494;28;20233;-51
2022/07/13 10:22:06;;;;;;;1.27;1.17;;;29.80;39.60;;;;;;5029149;28;20200;-51
2022/07/13 10:24:34;;;;;;;5.57;1.00;;;29.80;39.50;;;;;;5045582;28;20671;-52
2022/07/13 10:27:21;;;;;;;1.67;1.05;;;29.80;39.40;;;;;;5030554;28;21291;-52
2022/07/13 10:29:50;;;;;;;1.13;0.88;;;29.80;39.50;;;;;;5043799;28;20212;-51
2022/07/13 10:32:29;;;;;;;1.10;1.10;;;29.80;40.10;;;;;;5043616;28;20255;-51
2022/07/13 10:35:01;;;;;;;1.10;1.10;;;29.80;39.90;;;;;;5047696;28;20215;-51
2022/07/13 10:37:28;;;;;;;0.88;0.82;;;29.80;40.30;;;;;;5028207;28;20204;-52
2022/07/13 10:40:15;;;;;;;1.45;1.08;;;29.80;40.50;;;;;;5046188;28;22343;-51
2022/07/13 10:42:53;;;;;;;5.65;1.60;;;29.80;40.40;;;;;;5044445;28;20728;-52
2022/07/13 10:45:40;;;;;;;1.20;1.00;;;29.80;40.80;;;;;;5027521;28;20649;-52
2022/07/13 10:48:18;;;;;;;1.83;1.05;;;29.90;41.10;;;;;;5039517;28;20680;-52
2022/07/13 10:50:57;;;;;;;3.15;1.00;;;30.00;40.20;;;;;;5046704;28;20210;-52
2022/07/13 10:53:50;;;;;;;1.17;1.08;;;30.10;40.40;;;;;;5046774;28;20277;-52
2022/07/13 10:56:19;;;;;;;1.75;1.25;;;30.20;40.60;;;;;;5045190;28;20218;-52
2022/07/13 10:58:48;;;;;;;1.50;1.08;;;30.20;40.80;;;;;;5010390;28;20231;-50
2022/07/13 11:01:49;;;;;;;0.82;0.82;;;30.30;40.00;;;;;;5027063;28;20231;-51
2022/07/13 11:04:19;;;;;;;5.97;1.45;;;30.40;36.80;;;;;;4992892;28;20199;-51
2022/07/13 11:07:05;;;;;;;0.88;0.85;;;30.40;37.50;;;;;;5044482;28;20207;-52
2022/07/13 11:09:32;;;;;;;2.50;0.85;;;30.30;37.60;;;;;;5045726;28;20935;-52
2022/07/13 11:11:59;;;;;;;1.60;0.80;;;30.40;37.90;;;;;;5023951;28;20742;-51
2022/07/13 11:14:35;;;;;;;0.73;0.70;;;30.50;36.50;;;;;;5026687;28;20227;-51
2022/07/13 11:17:16;;;;;;;1.55;0.90;;;30.60;35.10;;;;;;5024463;28;20734;-50
2022/07/13 11:20:09;;;;;;;0.93;0.70;;;30.60;34.90;;;;;;5069758;27;20977;-51
2022/07/13 11:25:46;;;;;;;0.90;0.80;;;30.60;34.10;;;;;;5062662;28;20306;-51
2022/07/13 11:28:19;;;;;;;2.78;0.90;;;30.60;34.10;;;;;;5054698;28;20210;-51
2022/07/13 11:30:53;;;;;;;0.88;0.73;;;30.60;34.20;;;;;;5056770;28;20213;-51
2022/07/13 11:33:20;;;;;;;0.82;0.82;;;30.60;34.30;;;;;;5058460;28;20202;-51
2022/07/13 11:35:47;;;;;;;1.08;0.98;;;30.70;34.10;;;;;;5094809;28;20210;-51
2022/07/13 11:38:16;;;;;;;0.98;0.68;;;30.60;34.80;;;;;;5056352;28;20270;-51
2022/07/13 11:40:44;;;;;;;1.27;0.60;;;30.60;34.70;;;;;;5060287;28;20207;-51
2022/07/13 11:43:13;;;;;;;0.73;0.73;;;30.60;34.80;;;;;;5057146;28;20971;-51
2022/07/13 11:45:42;;;;;;;1.00;0.90;;;30.60;33.60;;;;;;5055841;28;20211;-51
2022/07/13 11:48:13;;;;;;;0.80;0.55;;;30.60;35.30;;;;;;5055002;28;20210;-51
2022/07/13 11:50:47;;;;;;;1.45;0.60;;;30.50;34.60;;;;;;5061955;28;20298;-51
2022/07/13 11:53:24;;;;;;;1.00;0.63;;;30.40;35.10;;;;;;5053739;28;20293;-52
2022/07/13 11:55:52;;;;;;;1.70;0.80;;;30.50;35.40;;;;;;5062015;28;20497;-52
2022/07/13 11:58:33;;;;;;;1.70;0.80;;;30.50;35.40;;;;;;5055298;28;20794;-52
2022/07/13 12:01:08;;;;;;;0.90;0.70;;;30.60;35.20;;;;;;5061008;28;20779;-51
2022/07/13 12:03:35;;;;;;;0.82;0.70;;;30.70;35.60;;;;;;5071918;28;20645;-52
2022/07/13 12:06:04;;;;;;;0.80;0.80;;;30.70;35.50;;;;;;5053786;28;20913;-51
2022/07/13 12:08:33;;;;;;;2.28;0.70;;;30.80;35.00;;;;;;5055723;28;20214;-51
2022/07/13 12:11:01;;;;;;;4.10;0.80;;;30.80;34.70;;;;;;5056374;28;20631;-51
2022/07/13 12:13:36;;;;;;;1.17;0.77;;;30.90;35.10;;;;;;5061149;28;20238;-51
2022/07/13 12:16:05;;;;;;;0.52;0.50;;;31.00;34.20;;;;;;5056221;28;20275;-52
2022/07/13 12:19:06;;;;;;;0.82;0.70;;;31.00;33.20;;;;;;5057767;28;20231;-52
2022/07/13 12:21:33;;;;;;;0.88;0.65;;;31.10;32.60;;;;;;5060159;28;20210;-52
2022/07/13 12:24:01;;;;;;;0.88;0.88;;;31.10;32.50;;;;;;5055816;28;20203;-52
2022/07/13 12:26:29;;;;;;;2.00;0.80;;;31.10;32.40;;;;;;5057617;28;20671;-52
2022/07/13 12:28:56;;;;;;;0.70;0.50;;;31.10;32.40;;;;;;5057815;28;20295;-52
2022/07/13 12:31:23;;;;;;;0.95;0.90;;;31.10;32.40;;;;;;5036611;28;20211;-52
2022/07/13 12:33:51;;;;;;;1.65;0.82;;;31.10;31.70;;;;;;5036548;28;20215;-52
2022/07/13 12:36:20;;;;;;;1.23;0.75;;;31.20;33.20;;;;;;5045557;28;20222;-52
2022/07/13 12:39:02;;;;;;;0.70;0.70;;;31.30;30.60;;;;;;5046260;28;20255;-52
2022/07/13 12:41:41;;;;;;;3.53;0.73;;;31.40;30.40;;;;;;5045882;28;20577;-52
2022/07/13 12:44:09;;;;;;;0.80;0.50;;;31.50;30.60;;;;;;5042418;28;20235;-52
2022/07/13 12:46:56;;;;;;;0.80;0.80;;;31.60;30.80;;;;;;5043694;28;20620;-52
2022/07/13 12:49:38;;;;;;;0.90;0.90;;;31.60;31.40;;;;;;5059549;28;20702;-52
2022/07/13 12:52:07;;;;;;;1.85;0.70;;;31.70;30.90;;;;;;5044033;28;20204;-50
2022/07/13 12:54:51;;;;;;;2.45;0.90;;;31.80;29.50;;;;;;5051258;28;20211;-51
2022/07/13 12:57:24;;;;;;;0.98;0.88;;;31.80;30.00;;;;;;5046724;28;20208;-50
2022/07/13 13:00:11;;;;;;;0.70;0.65;;;31.80;29.40;;;;;;5047374;28;20242;-50
2022/07/13 13:02:46;;;;;;;1.65;0.85;;;31.80;29.20;;;;;;5049146;28;20295;-51
2022/07/13 13:05:13;;;;;;;0.80;0.70;;;31.90;29.20;;;;;;5048217;28;20759;-51
2022/07/13 13:07:40;;;;;;;0.70;0.70;;;31.90;29.50;;;;;;5048811;28;20205;-51
2022/07/13 13:10:08;;;;;;;1.00;0.93;;;31.90;29.60;;;;;;5049684;28;20254;-50